sensor_id;sensor_type;location;lat;lon;timestamp;temperature;humidity
9973;DHT22;5027;53.560;10.062;2022-07-23T00:00:13;21.40;99.90
9973;DHT22;5027;53.560;10.062;2022-07-23T00:02:40;21.40;99.90
9973;DHT22;5027;53.560;10.062;2022-07-23T00:05:07;21.40;99.90
9973;DHT22;5027;53.560;10.062;2022-07-23T00:07:34;21.40;99.90
9973;DHT22;5027;53.560;10.062;2022-07-23T00:10:00;21.30;99.90
9973;DHT22;5027;53.560;10.062;2022-07-23T00:12:27;21.40;99.90
9973;DHT22;5027;53.560;10.062;2022-07-23T00:14:54;21.40;99.90
9973;DHT22;5027;53.560;10.062;2022-07-23T00:17:20;21.40;99.90
9973;DHT22;5027;53.560;10.062;2022-07-23T00:19:47;21.40;99.90
9973;DHT22;5027;53.560;10.062;2022-07-23T00:22:14;21.40;99.90
9973;DHT22;5027;53.560;10.062;2022-07-23T00:24:41;21.40;99.90
9973;DHT22;5027;53.560;10.062;2022-07-23T00:27:07;21.30;99.90
9973;DHT22;5027;53.560;10.062;2022-07-23T00:29:34;21.20;99.90
9973;DHT22;5027;53.560;10.062;2022-07-23T00:32:01;21.30;99.90
9973;DHT22;5027;53.560;10.062;2022-07-23T00:34:27;21.30;99.90
9973;DHT22;5027;53.560;10.062;2022-07-23T00:36:54;21.30;99.90
9973;DHT22;5027;53.560;10.062;2022-07-23T00:39:21;21.30;99.90
9973;DHT22;5027;53.560;10.062;2022-07-23T00:41:50;21.30;99.90
9973;DHT22;5027;53.560;10.062;2022-07-23T00:44:23;21.30;99.90
9973;DHT22;5027;53.560;10.062;2022-07-23T00:46:55;21.30;99.90
9973;DHT22;5027;53.560;10.062;2022-07-23T00:49:29;21.30;99.90
9973;DHT22;5027;53.560;10.062;2022-07-23T00:51:57;21.30;99.90
9973;DHT22;5027;53.560;10.062;2022-07-23T00:54:26;21.20;99.90
9973;DHT22;5027;53.560;10.062;2022-07-23T00:56:53;21.00;99.90
9973;DHT22;5027;53.560;10.062;2022-07-23T00:59:21;21.00;99.90
9973;DHT22;5027;53.560;10.062;2022-07-23T01:01:48;20.90;99.90
9973;DHT22;5027;53.560;10.062;2022-07-23T01:04:16;21.00;99.90
9973;DHT22;5027;53.560;10.062;2022-07-23T01:06:43;21.10;99.90
9973;DHT22;5027;53.560;10.062;2022-07-23T01:09:10;21.10;99.90
9973;DHT22;5027;53.560;10.062;2022-07-23T01:11:38;21.10;99.90
9973;DHT22;5027;53.560;10.062;2022-07-23T01:16:36;21.10;99.90
9973;DHT22;5027;53.560;10.062;2022-07-23T01:19:03;21.10;99.90
9973;DHT22;5027;53.560;10.062;2022-07-23T01:21:46;21.00;99.90
9973;DHT22;5027;53.560;10.062;2022-07-23T01:24:14;21.10;99.90
9973;DHT22;5027;53.560;10.062;2022-07-23T01:26:50;21.10;99.90
9973;DHT22;5027;53.560;10.062;2022-07-23T01:29:17;21.00;99.90
9973;DHT22;5027;53.560;10.062;2022-07-23T01:31:46;21.10;99.90
9973;DHT22;5027;53.560;10.062;2022-07-23T01:34:14;21.10;99.90
9973;DHT22;5027;53.560;10.062;2022-07-23T01:36:40;21.00;99.90
9973;DHT22;5027;53.560;10.062;2022-07-23T01:39:09;21.10;99.90
9973;DHT22;5027;53.560;10.062;2022-07-23T01:41:36;21.00;99.90
9973;DHT22;5027;53.560;10.062;2022-07-23T01:44:03;21.00;99.90
9973;DHT22;5027;53.560;10.062;2022-07-23T01:46:30;21.00;99.90
9973;DHT22;5027;53.560;10.062;2022-07-23T01:48:57;21.00;99.90
9973;DHT22;5027;53.560;10.062;2022-07-23T01:51:45;21.10;99.90
9973;DHT22;5027;53.560;10.062;2022-07-23T01:54:39;21.10;99.90
9973;DHT22;5027;53.560;10.062;2022-07-23T01:57:08;21.10;99.90
9973;DHT22;5027;53.560;10.062;2022-07-23T01:59:35;21.10;99.90
9973;DHT22;5027;53.560;10.062;2022-07-23T02:02:03;21.10;99.90
9973;DHT22;5027;53.560;10.062;2022-07-23T02:04:32;21.10;99.90
9973;DHT22;5027;53.560;10.062;2022-07-23T02:07:04;21.20;99.90
9973;DHT22;5027;53.560;10.062;2022-07-23T02:09:31;21.20;99.90
9973;DHT22;5027;53.560;10.062;2022-07-23T02:11:57;21.20;99.90
9973;DHT22;5027;53.560;10.062;2022-07-23T02:14:25;21.10;99.90
9973;DHT22;5027;53.560;10.062;2022-07-23T02:16:52;21.20;99.90
9973;DHT22;5027;53.560;10.062;2022-07-23T02:19:18;21.10;99.90
9973;DHT22;5027;53.560;10.062;2022-07-23T02:21:45;21.10;99.90
9973;DHT22;5027;53.560;10.062;2022-07-23T02:24:12;21.10;99.90
9973;DHT22;5027;53.560;10.062;2022-07-23T02:26:40;21.10;99.90
9973;DHT22;5027;53.560;10.062;2022-07-23T02:29:08;21.10;99.90
9973;DHT22;5027;53.560;10.062;2022-07-23T02:31:35;21.10;99.90
9973;DHT22;5027;53.560;10.062;2022-07-23T02:34:02;21.10;99.90
9973;DHT22;5027;53.560;10.062;2022-07-23T02:36:29;21.10;99.90
9973;DHT22;5027;53.560;10.062;2022-07-23T02:38:57;21.10;99.90
9973;DHT22;5027;53.560;10.062;2022-07-23T02:41:26;21.10;99.90
9973;DHT22;5027;53.560;10.062;2022-07-23T02:43:53;21.10;99.90
9973;DHT22;5027;53.560;10.062;2022-07-23T02:46:20;21.00;99.90
9973;DHT22;5027;53.560;10.062;2022-07-23T02:48:47;20.90;99.90
9973;DHT22;5027;53.560;10.062;2022-07-23T02:51:14;21.00;99.90
9973;DHT22;5027;53.560;10.062;2022-07-23T02:53:53;21.00;99.90
9973;DHT22;5027;53.560;10.062;2022-07-23T02:56:20;21.00;99.90
9973;DHT22;5027;53.560;10.062;2022-07-23T02:58:46;20.90;99.90
9973;DHT22;5027;53.560;10.062;2022-07-23T03:01:13;20.90;99.90
9973;DHT22;5027;53.560;10.062;2022-07-23T03:03:45;20.90;99.90
9973;DHT22;5027;53.560;10.062;2022-07-23T03:06:11;20.90;99.90
9973;DHT22;5027;53.560;10.062;2022-07-23T03:08:38;20.90;99.90
9973;DHT22;5027;53.560;10.062;2022-07-23T03:11:05;20.90;99.90
9973;DHT22;5027;53.560;10.062;2022-07-23T03:13:39;20.90;99.90
9973;DHT22;5027;53.560;10.062;2022-07-23T03:16:06;20.90;99.90
9973;DHT22;5027;53.560;10.062;2022-07-23T03:18:36;20.90;99.90
9973;DHT22;5027;53.560;10.062;2022-07-23T03:21:07;20.90;99.90
9973;DHT22;5027;53.560;10.062;2022-07-23T03:23:36;20.80;99.90
9973;DHT22;5027;53.560;10.062;2022-07-23T03:26:03;20.80;99.90
9973;DHT22;5027;53.560;10.062;2022-07-23T03:28:30;20.80;99.90
9973;DHT22;5027;53.560;10.062;2022-07-23T03:30:57;20.70;99.90
9973;DHT22;5027;53.560;10.062;2022-07-23T03:33:24;20.80;99.90
9973;DHT22;5027;53.560;10.062;2022-07-23T03:35:52;20.80;99.90
9973;DHT22;5027;53.560;10.062;2022-07-23T03:38:23;20.80;99.90
9973;DHT22;5027;53.560;10.062;2022-07-23T03:40:50;20.80;99.90
9973;DHT22;5027;53.560;10.062;2022-07-23T03:43:17;20.80;99.90
9973;DHT22;5027;53.560;10.062;2022-07-23T03:45:45;20.80;99.90
9973;DHT22;5027;53.560;10.062;2022-07-23T03:48:11;20.80;99.90
9973;DHT22;5027;53.560;10.062;2022-07-23T03:50:39;20.80;99.90
9973;DHT22;5027;53.560;10.062;2022-07-23T03:53:06;20.80;99.90
9973;DHT22;5027;53.560;10.062;2022-07-23T03:55:34;20.80;99.90
9973;DHT22;5027;53.560;10.062;2022-07-23T03:58:01;20.70;99.90
9973;DHT22;5027;53.560;10.062;2022-07-23T04:00:28;20.80;99.90
9973;DHT22;5027;53.560;10.062;2022-07-23T04:02:54;20.70;99.90
9973;DHT22;5027;53.560;10.062;2022-07-23T04:05:21;20.70;99.90
9973;DHT22;5027;53.560;10.062;2022-07-23T04:07:52;20.70;99.90
9973;DHT22;5027;53.560;10.062;2022-07-23T04:10:19;20.60;99.90
9973;DHT22;5027;53.560;10.062;2022-07-23T04:12:46;20.70;99.90
9973;DHT22;5027;53.560;10.062;2022-07-23T04:15:12;20.70;99.90
9973;DHT22;5027;53.560;10.062;2022-07-23T04:17:39;20.80;99.90
9973;DHT22;5027;53.560;10.062;2022-07-23T04:20:06;20.80;99.90
9973;DHT22;5027;53.560;10.062;2022-07-23T04:22:40;20.80;99.90
9973;DHT22;5027;53.560;10.062;2022-07-23T04:25:08;20.80;99.90
9973;DHT22;5027;53.560;10.062;2022-07-23T04:27:35;20.80;99.90
9973;DHT22;5027;53.560;10.062;2022-07-23T04:30:02;20.80;99.90
9973;DHT22;5027;53.560;10.062;2022-07-23T04:32:29;20.80;99.90
9973;DHT22;5027;53.560;10.062;2022-07-23T04:34:56;20.80;99.90
9973;DHT22;5027;53.560;10.062;2022-07-23T04:37:23;20.80;99.90
9973;DHT22;5027;53.560;10.062;2022-07-23T04:39:50;20.80;99.90
9973;DHT22;5027;53.560;10.062;2022-07-23T04:42:16;20.80;99.90
9973;DHT22;5027;53.560;10.062;2022-07-23T04:44:43;20.80;99.90
9973;DHT22;5027;53.560;10.062;2022-07-23T04:47:10;20.70;99.90
9973;DHT22;5027;53.560;10.062;2022-07-23T04:49:39;20.70;99.90
9973;DHT22;5027;53.560;10.062;2022-07-23T04:52:06;20.80;99.90
9973;DHT22;5027;53.560;10.062;2022-07-23T04:54:32;20.80;99.90
9973;DHT22;5027;53.560;10.062;2022-07-23T04:56:59;20.70;99.90
9973;DHT22;5027;53.560;10.062;2022-07-23T04:59:26;20.80;99.90
9973;DHT22;5027;53.560;10.062;2022-07-23T05:01:58;20.60;99.90
9973;DHT22;5027;53.560;10.062;2022-07-23T05:04:25;20.50;99.90
9973;DHT22;5027;53.560;10.062;2022-07-23T05:06:52;20.50;99.90
9973;DHT22;5027;53.560;10.062;2022-07-23T05:09:18;20.50;99.90
9973;DHT22;5027;53.560;10.062;2022-07-23T05:11:45;20.60;99.90
9973;DHT22;5027;53.560;10.062;2022-07-23T05:14:12;20.70;99.90
9973;DHT22;5027;53.560;10.062;2022-07-23T05:16:39;20.70;99.90
9973;DHT22;5027;53.560;10.062;2022-07-23T05:19:12;20.70;99.90
9973;DHT22;5027;53.560;10.062;2022-07-23T05:21:39;20.70;99.90
9973;DHT22;5027;53.560;10.062;2022-07-23T05:24:06;20.70;99.90
9973;DHT22;5027;53.560;10.062;2022-07-23T05:26:33;20.60;99.90
9973;DHT22;5027;53.560;10.062;2022-07-23T05:29:00;20.70;99.90
9973;DHT22;5027;53.560;10.062;2022-07-23T05:31:28;20.60;99.90
9973;DHT22;5027;53.560;10.062;2022-07-23T05:33:55;20.70;99.90
9973;DHT22;5027;53.560;10.062;2022-07-23T05:36:22;20.70;99.90
9973;DHT22;5027;53.560;10.062;2022-07-23T05:38:52;20.60;99.90
9973;DHT22;5027;53.560;10.062;2022-07-23T05:41:19;20.50;99.90
9973;DHT22;5027;53.560;10.062;2022-07-23T05:43:46;20.50;99.90
9973;DHT22;5027;53.560;10.062;2022-07-23T05:46:14;20.50;99.90
9973;DHT22;5027;53.560;10.062;2022-07-23T05:48:42;20.60;99.90
9973;DHT22;5027;53.560;10.062;2022-07-23T05:51:25;20.60;99.90
9973;DHT22;5027;53.560;10.062;2022-07-23T05:53:53;20.70;99.90
9973;DHT22;5027;53.560;10.062;2022-07-23T05:56:21;20.70;99.90
9973;DHT22;5027;53.560;10.062;2022-07-23T05:58:47;20.70;99.90
9973;DHT22;5027;53.560;10.062;2022-07-23T06:01:16;20.60;99.90
9973;DHT22;5027;53.560;10.062;2022-07-23T06:03:50;20.60;99.90
9973;DHT22;5027;53.560;10.062;2022-07-23T06:06:17;20.60;99.90
9973;DHT22;5027;53.560;10.062;2022-07-23T06:08:43;20.70;99.90
9973;DHT22;5027;53.560;10.062;2022-07-23T06:11:11;20.60;99.90
9973;DHT22;5027;53.560;10.062;2022-07-23T06:13:37;20.60;99.90
9973;DHT22;5027;53.560;10.062;2022-07-23T06:16:04;20.60;99.90
9973;DHT22;5027;53.560;10.062;2022-07-23T06:18:31;20.70;99.90
9973;DHT22;5027;53.560;10.062;2022-07-23T06:20:58;20.70;99.90
9973;DHT22;5027;53.560;10.062;2022-07-23T06:23:26;20.70;99.90
9973;DHT22;5027;53.560;10.062;2022-07-23T06:25:53;20.60;99.90
9973;DHT22;5027;53.560;10.062;2022-07-23T06:28:19;20.70;99.90
9973;DHT22;5027;53.560;10.062;2022-07-23T06:30:46;20.70;99.90
9973;DHT22;5027;53.560;10.062;2022-07-23T06:33:13;20.60;99.90
9973;DHT22;5027;53.560;10.062;2022-07-23T06:35:40;20.60;99.90
9973;DHT22;5027;53.560;10.062;2022-07-23T06:38:07;20.40;99.90
9973;DHT22;5027;53.560;10.062;2022-07-23T06:40:34;20.40;99.90
9973;DHT22;5027;53.560;10.062;2022-07-23T06:43:01;20.50;99.90
9973;DHT22;5027;53.560;10.062;2022-07-23T06:45:29;20.60;99.90
9973;DHT22;5027;53.560;10.062;2022-07-23T06:47:55;20.80;99.90
9973;DHT22;5027;53.560;10.062;2022-07-23T06:50:22;20.80;99.90
9973;DHT22;5027;53.560;10.062;2022-07-23T06:52:49;20.80;99.90
9973;DHT22;5027;53.560;10.062;2022-07-23T06:55:16;20.80;99.90
9973;DHT22;5027;53.560;10.062;2022-07-23T06:57:44;20.80;99.90
9973;DHT22;5027;53.560;10.062;2022-07-23T07:00:11;20.90;99.90
9973;DHT22;5027;53.560;10.062;2022-07-23T07:02:38;20.80;99.90
9973;DHT22;5027;53.560;10.062;2022-07-23T07:05:05;20.60;99.90
9973;DHT22;5027;53.560;10.062;2022-07-23T07:07:33;20.50;99.90
9973;DHT22;5027;53.560;10.062;2022-07-23T07:10:01;20.50;99.90
9973;DHT22;5027;53.560;10.062;2022-07-23T07:12:28;20.40;99.90
9973;DHT22;5027;53.560;10.062;2022-07-23T07:14:55;20.60;99.90
9973;DHT22;5027;53.560;10.062;2022-07-23T07:17:21;20.70;99.90
9973;DHT22;5027;53.560;10.062;2022-07-23T07:19:48;20.60;99.90
9973;DHT22;5027;53.560;10.062;2022-07-23T07:22:15;20.40;99.90
9973;DHT22;5027;53.560;10.062;2022-07-23T07:24:42;20.40;99.90
9973;DHT22;5027;53.560;10.062;2022-07-23T07:27:08;20.40;99.90
9973;DHT22;5027;53.560;10.062;2022-07-23T07:29:35;20.60;99.90
9973;DHT22;5027;53.560;10.062;2022-07-23T07:32:02;20.80;99.90
9973;DHT22;5027;53.560;10.062;2022-07-23T07:34:28;20.80;99.90
9973;DHT22;5027;53.560;10.062;2022-07-23T07:36:55;21.00;99.90
9973;DHT22;5027;53.560;10.062;2022-07-23T07:39:22;21.10;99.90
9973;DHT22;5027;53.560;10.062;2022-07-23T07:41:49;21.40;99.90
9973;DHT22;5027;53.560;10.062;2022-07-23T07:44:15;21.20;99.90
9973;DHT22;5027;53.560;10.062;2022-07-23T07:46:42;21.10;99.90
9973;DHT22;5027;53.560;10.062;2022-07-23T07:49:09;21.10;99.90
9973;DHT22;5027;53.560;10.062;2022-07-23T07:51:42;21.00;99.90
9973;DHT22;5027;53.560;10.062;2022-07-23T07:54:11;20.80;99.90
9973;DHT22;5027;53.560;10.062;2022-07-23T07:56:38;21.00;99.90
9973;DHT22;5027;53.560;10.062;2022-07-23T07:59:05;21.00;99.90
9973;DHT22;5027;53.560;10.062;2022-07-23T08:01:33;21.00;99.90
9973;DHT22;5027;53.560;10.062;2022-07-23T08:04:00;20.90;99.90
9973;DHT22;5027;53.560;10.062;2022-07-23T08:06:27;20.90;99.90
9973;DHT22;5027;53.560;10.062;2022-07-23T08:08:54;21.00;99.90
9973;DHT22;5027;53.560;10.062;2022-07-23T08:11:20;21.00;99.90
9973;DHT22;5027;53.560;10.062;2022-07-23T08:13:47;21.00;99.90
9973;DHT22;5027;53.560;10.062;2022-07-23T08:16:14;20.90;99.90
9973;DHT22;5027;53.560;10.062;2022-07-23T08:18:41;21.00;99.90
9973;DHT22;5027;53.560;10.062;2022-07-23T08:21:08;21.00;99.90
9973;DHT22;5027;53.560;10.062;2022-07-23T08:23:34;21.00;99.90
9973;DHT22;5027;53.560;10.062;2022-07-23T08:26:02;21.10;99.90
9973;DHT22;5027;53.560;10.062;2022-07-23T08:28:28;21.20;99.90
9973;DHT22;5027;53.560;10.062;2022-07-23T08:30:55;21.10;99.90
9973;DHT22;5027;53.560;10.062;2022-07-23T08:33:22;21.10;99.90
9973;DHT22;5027;53.560;10.062;2022-07-23T08:36:01;21.20;99.90
9973;DHT22;5027;53.560;10.062;2022-07-23T08:38:29;21.00;99.90
9973;DHT22;5027;53.560;10.062;2022-07-23T08:40:56;20.90;99.90
9973;DHT22;5027;53.560;10.062;2022-07-23T08:43:28;20.90;99.90
9973;DHT22;5027;53.560;10.062;2022-07-23T08:45:57;20.90;99.90
9973;DHT22;5027;53.560;10.062;2022-07-23T08:48:28;21.00;99.90
9973;DHT22;5027;53.560;10.062;2022-07-23T08:50:57;21.30;99.90
9973;DHT22;5027;53.560;10.062;2022-07-23T08:53:25;21.50;99.90
9973;DHT22;5027;53.560;10.062;2022-07-23T08:55:54;21.60;99.90
9973;DHT22;5027;53.560;10.062;2022-07-23T08:58:22;21.80;99.90
9973;DHT22;5027;53.560;10.062;2022-07-23T09:00:53;21.70;99.90
9973;DHT22;5027;53.560;10.062;2022-07-23T09:03:28;21.70;99.90
9973;DHT22;5027;53.560;10.062;2022-07-23T09:05:56;21.80;99.90
9973;DHT22;5027;53.560;10.062;2022-07-23T09:08:38;21.70;99.90
9973;DHT22;5027;53.560;10.062;2022-07-23T09:11:07;21.80;99.90
9973;DHT22;5027;53.560;10.062;2022-07-23T09:16:11;21.60;99.90
9973;DHT22;5027;53.560;10.062;2022-07-23T09:21:18;21.60;99.90
9973;DHT22;5027;53.560;10.062;2022-07-23T09:23:57;21.80;99.90
9973;DHT22;5027;53.560;10.062;2022-07-23T09:26:31;21.70;99.90
9973;DHT22;5027;53.560;10.062;2022-07-23T09:29:17;21.60;99.90
9973;DHT22;5027;53.560;10.062;2022-07-23T09:31:50;21.70;99.90
9973;DHT22;5027;53.560;10.062;2022-07-23T09:34:50;21.50;99.90
9973;DHT22;5027;53.560;10.062;2022-07-23T09:37:14;21.60;99.90
9973;DHT22;5027;53.560;10.062;2022-07-23T09:39:42;21.60;99.90
9973;DHT22;5027;53.560;10.062;2022-07-23T09:42:24;21.60;99.90
9973;DHT22;5027;53.560;10.062;2022-07-23T09:44:56;21.60;99.90
9973;DHT22;5027;53.560;10.062;2022-07-23T09:47:24;21.50;99.90
9973;DHT22;5027;53.560;10.062;2022-07-23T09:50:05;21.60;99.90
9973;DHT22;5027;53.560;10.062;2022-07-23T09:52:42;21.60;99.90
9973;DHT22;5027;53.560;10.062;2022-07-23T09:55:09;21.60;99.90
9973;DHT22;5027;53.560;10.062;2022-07-23T09:57:36;21.60;99.90
9973;DHT22;5027;53.560;10.062;2022-07-23T10:00:07;21.60;99.90
9973;DHT22;5027;53.560;10.062;2022-07-23T10:02:39;21.60;99.90
9973;DHT22;5027;53.560;10.062;2022-07-23T10:05:25;21.60;99.90
9973;DHT22;5027;53.560;10.062;2022-07-23T10:08:11;21.60;99.90
9973;DHT22;5027;53.560;10.062;2022-07-23T10:11:00;21.60;99.90
9973;DHT22;5027;53.560;10.062;2022-07-23T10:13:47;21.50;99.90
9973;DHT22;5027;53.560;10.062;2022-07-23T10:16:44;21.50;99.90
9973;DHT22;5027;53.560;10.062;2022-07-23T10:19:10;21.60;99.90
9973;DHT22;5027;53.560;10.062;2022-07-23T10:21:42;21.60;99.90
9973;DHT22;5027;53.560;10.062;2022-07-23T10:24:36;21.50;99.90
9973;DHT22;5027;53.560;10.062;2022-07-23T10:29:52;21.50;99.90
9973;DHT22;5027;53.560;10.062;2022-07-23T10:35:33;21.60;99.90
9973;DHT22;5027;53.560;10.062;2022-07-23T10:38:18;21.70;99.90
9973;DHT22;5027;53.560;10.062;2022-07-23T10:40:59;21.70;99.90
9973;DHT22;5027;53.560;10.062;2022-07-23T10:43:26;21.70;99.90
9973;DHT22;5027;53.560;10.062;2022-07-23T10:45:55;21.70;99.90
9973;DHT22;5027;53.560;10.062;2022-07-23T10:48:25;21.80;99.90
9973;DHT22;5027;53.560;10.062;2022-07-23T10:51:13;21.80;99.90
9973;DHT22;5027;53.560;10.062;2022-07-23T10:53:56;21.80;99.90
9973;DHT22;5027;53.560;10.062;2022-07-23T10:59:22;21.90;99.90
9973;DHT22;5027;53.560;10.062;2022-07-23T11:01:50;21.90;99.90
9973;DHT22;5027;53.560;10.062;2022-07-23T11:04:18;22.00;99.90
9973;DHT22;5027;53.560;10.062;2022-07-23T11:15:07;22.10;99.90
9973;DHT22;5027;53.560;10.062;2022-07-23T11:18:00;22.00;99.90
9973;DHT22;5027;53.560;10.062;2022-07-23T11:20:28;22.00;99.90
9973;DHT22;5027;53.560;10.062;2022-07-23T11:22:57;22.00;99.90
9973;DHT22;5027;53.560;10.062;2022-07-23T11:28:15;22.00;99.90
9973;DHT22;5027;53.560;10.062;2022-07-23T11:30:44;22.00;99.90
9973;DHT22;5027;53.560;10.062;2022-07-23T11:35:45;22.10;99.90
9973;DHT22;5027;53.560;10.062;2022-07-23T11:38:21;22.10;99.90
9973;DHT22;5027;53.560;10.062;2022-07-23T11:40:53;22.20;99.90
9973;DHT22;5027;53.560;10.062;2022-07-23T11:43:21;22.20;99.90
9973;DHT22;5027;53.560;10.062;2022-07-23T11:45:51;22.20;99.90
9973;DHT22;5027;53.560;10.062;2022-07-23T11:48:23;22.20;99.90
9973;DHT22;5027;53.560;10.062;2022-07-23T11:50:51;22.20;99.90
9973;DHT22;5027;53.560;10.062;2022-07-23T11:53:29;22.30;99.90
9973;DHT22;5027;53.560;10.062;2022-07-23T11:56:06;22.30;99.90
9973;DHT22;5027;53.560;10.062;2022-07-23T11:58:33;22.30;99.90
9973;DHT22;5027;53.560;10.062;2022-07-23T12:01:00;22.30;99.90
9973;DHT22;5027;53.560;10.062;2022-07-23T12:03:27;22.30;99.90
9973;DHT22;5027;53.560;10.062;2022-07-23T12:05:58;22.30;99.90
9973;DHT22;5027;53.560;10.062;2022-07-23T12:08:25;22.30;99.90
9973;DHT22;5027;53.560;10.062;2022-07-23T12:10:52;22.40;99.90
9973;DHT22;5027;53.560;10.062;2022-07-23T12:13:20;22.40;99.90
9973;DHT22;5027;53.560;10.062;2022-07-23T12:15:51;22.40;99.90
9973;DHT22;5027;53.560;10.062;2022-07-23T12:18:25;22.30;99.90
9973;DHT22;5027;53.560;10.062;2022-07-23T12:20:57;22.40;99.90
9973;DHT22;5027;53.560;10.062;2022-07-23T12:23:29;22.40;99.90
9973;DHT22;5027;53.560;10.062;2022-07-23T12:26:00;22.40;99.90
9973;DHT22;5027;53.560;10.062;2022-07-23T12:28:32;22.40;99.90
9973;DHT22;5027;53.560;10.062;2022-07-23T12:31:00;22.40;99.90
9973;DHT22;5027;53.560;10.062;2022-07-23T12:33:38;22.40;99.90
9973;DHT22;5027;53.560;10.062;2022-07-23T12:36:09;22.30;99.90
9973;DHT22;5027;53.560;10.062;2022-07-23T12:38:40;22.40;99.90
9973;DHT22;5027;53.560;10.062;2022-07-23T12:41:07;22.30;99.90
9973;DHT22;5027;53.560;10.062;2022-07-23T12:43:37;22.30;99.90
9973;DHT22;5027;53.560;10.062;2022-07-23T12:46:13;22.30;99.90
9973;DHT22;5027;53.560;10.062;2022-07-23T12:51:24;22.40;99.90
9973;DHT22;5027;53.560;10.062;2022-07-23T12:54:18;22.40;99.90
9973;DHT22;5027;53.560;10.062;2022-07-23T12:56:53;22.30;99.90
9973;DHT22;5027;53.560;10.062;2022-07-23T12:59:19;22.40;99.90
9973;DHT22;5027;53.560;10.062;2022-07-23T13:01:55;22.40;99.90
9973;DHT22;5027;53.560;10.062;2022-07-23T13:04:25;22.30;99.90
9973;DHT22;5027;53.560;10.062;2022-07-23T13:06:57;22.40;99.90
9973;DHT22;5027;53.560;10.062;2022-07-23T13:09:32;22.40;99.90
9973;DHT22;5027;53.560;10.062;2022-07-23T13:12:07;22.30;99.90
9973;DHT22;5027;53.560;10.062;2022-07-23T13:14:36;22.40;99.90
9973;DHT22;5027;53.560;10.062;2022-07-23T13:17:02;22.30;99.90
9973;DHT22;5027;53.560;10.062;2022-07-23T13:19:32;22.30;99.90
9973;DHT22;5027;53.560;10.062;2022-07-23T13:22:00;22.30;99.90
9973;DHT22;5027;53.560;10.062;2022-07-23T13:24:34;22.30;99.90
9973;DHT22;5027;53.560;10.062;2022-07-23T13:27:04;22.30;99.90
9973;DHT22;5027;53.560;10.062;2022-07-23T13:29:33;22.20;99.90
9973;DHT22;5027;53.560;10.062;2022-07-23T13:32:02;22.20;99.90
9973;DHT22;5027;53.560;10.062;2022-07-23T13:34:36;22.20;99.90
9973;DHT22;5027;53.560;10.062;2022-07-23T13:37:06;22.20;99.90
9973;DHT22;5027;53.560;10.062;2022-07-23T13:39:34;22.20;99.90
9973;DHT22;5027;53.560;10.062;2022-07-23T13:42:04;22.20;99.90
9973;DHT22;5027;53.560;10.062;2022-07-23T13:44:51;22.20;99.90
9973;DHT22;5027;53.560;10.062;2022-07-23T13:47:17;22.30;99.90
9973;DHT22;5027;53.560;10.062;2022-07-23T13:49:44;22.20;99.90
9973;DHT22;5027;53.560;10.062;2022-07-23T13:52:14;22.30;99.90
9973;DHT22;5027;53.560;10.062;2022-07-23T13:54:41;22.30;99.90
9973;DHT22;5027;53.560;10.062;2022-07-23T13:57:08;22.40;99.90
9973;DHT22;5027;53.560;10.062;2022-07-23T13:59:35;22.40;99.90
9973;DHT22;5027;53.560;10.062;2022-07-23T14:02:03;22.40;99.90
9973;DHT22;5027;53.560;10.062;2022-07-23T14:04:47;22.50;99.90
9973;DHT22;5027;53.560;10.062;2022-07-23T14:07:15;22.40;99.90
9973;DHT22;5027;53.560;10.062;2022-07-23T14:09:42;22.40;99.90
9973;DHT22;5027;53.560;10.062;2022-07-23T14:12:10;22.40;99.90
9973;DHT22;5027;53.560;10.062;2022-07-23T14:14:37;22.40;99.90
9973;DHT22;5027;53.560;10.062;2022-07-23T14:17:04;22.40;99.90
9973;DHT22;5027;53.560;10.062;2022-07-23T14:19:32;22.30;99.90
9973;DHT22;5027;53.560;10.062;2022-07-23T14:22:00;22.30;99.90
9973;DHT22;5027;53.560;10.062;2022-07-23T14:24:27;22.40;99.90
9973;DHT22;5027;53.560;10.062;2022-07-23T14:27:00;22.40;99.90
9973;DHT22;5027;53.560;10.062;2022-07-23T14:29:28;22.40;99.90
9973;DHT22;5027;53.560;10.062;2022-07-23T14:31:55;22.40;99.90
9973;DHT22;5027;53.560;10.062;2022-07-23T14:34:23;22.40;99.90
9973;DHT22;5027;53.560;10.062;2022-07-23T14:36:54;22.40;99.90
9973;DHT22;5027;53.560;10.062;2022-07-23T14:39:21;22.40;99.90
9973;DHT22;5027;53.560;10.062;2022-07-23T14:41:47;22.30;99.90
9973;DHT22;5027;53.560;10.062;2022-07-23T14:44:14;22.40;99.90
9973;DHT22;5027;53.560;10.062;2022-07-23T14:46:41;22.40;99.90
9973;DHT22;5027;53.560;10.062;2022-07-23T14:49:08;22.40;99.90
9973;DHT22;5027;53.560;10.062;2022-07-23T14:51:36;22.40;99.90
9973;DHT22;5027;53.560;10.062;2022-07-23T14:54:04;22.40;99.90
9973;DHT22;5027;53.560;10.062;2022-07-23T14:56:31;22.30;99.90
9973;DHT22;5027;53.560;10.062;2022-07-23T14:58:59;22.40;99.90
9973;DHT22;5027;53.560;10.062;2022-07-23T15:01:27;22.40;99.90
9973;DHT22;5027;53.560;10.062;2022-07-23T15:03:54;22.40;99.90
9973;DHT22;5027;53.560;10.062;2022-07-23T15:06:25;22.40;99.90
9973;DHT22;5027;53.560;10.062;2022-07-23T15:08:52;22.40;99.90
9973;DHT22;5027;53.560;10.062;2022-07-23T15:11:19;22.40;99.90
9973;DHT22;5027;53.560;10.062;2022-07-23T15:13:46;22.40;99.90
9973;DHT22;5027;53.560;10.062;2022-07-23T15:16:13;22.40;99.90
9973;DHT22;5027;53.560;10.062;2022-07-23T15:18:40;22.30;99.90
9973;DHT22;5027;53.560;10.062;2022-07-23T15:21:07;22.30;99.90
9973;DHT22;5027;53.560;10.062;2022-07-23T15:23:35;22.30;99.90
9973;DHT22;5027;53.560;10.062;2022-07-23T15:26:02;22.30;99.90
9973;DHT22;5027;53.560;10.062;2022-07-23T15:28:29;22.30;99.90
9973;DHT22;5027;53.560;10.062;2022-07-23T15:30:56;22.20;99.90
9973;DHT22;5027;53.560;10.062;2022-07-23T15:33:23;22.30;99.90
9973;DHT22;5027;53.560;10.062;2022-07-23T15:35:51;22.40;99.90
9973;DHT22;5027;53.560;10.062;2022-07-23T15:38:21;22.40;99.90
9973;DHT22;5027;53.560;10.062;2022-07-23T15:40:53;22.40;99.90
9973;DHT22;5027;53.560;10.062;2022-07-23T15:43:22;22.40;99.90
9973;DHT22;5027;53.560;10.062;2022-07-23T15:45:50;22.30;99.90
9973;DHT22;5027;53.560;10.062;2022-07-23T15:48:18;22.30;99.90
9973;DHT22;5027;53.560;10.062;2022-07-23T15:50:46;22.30;99.90
9973;DHT22;5027;53.560;10.062;2022-07-23T15:53:13;22.30;99.90
9973;DHT22;5027;53.560;10.062;2022-07-23T15:55:42;22.30;99.90
9973;DHT22;5027;53.560;10.062;2022-07-23T15:58:31;22.30;99.90
9973;DHT22;5027;53.560;10.062;2022-07-23T16:00:58;22.20;99.90
9973;DHT22;5027;53.560;10.062;2022-07-23T16:03:25;22.30;99.90
9973;DHT22;5027;53.560;10.062;2022-07-23T16:05:53;22.20;99.90
9973;DHT22;5027;53.560;10.062;2022-07-23T16:08:21;22.20;99.90
9973;DHT22;5027;53.560;10.062;2022-07-23T16:10:47;22.10;99.90
9973;DHT22;5027;53.560;10.062;2022-07-23T16:13:14;22.10;99.90
9973;DHT22;5027;53.560;10.062;2022-07-23T16:15:41;22.10;99.90
9973;DHT22;5027;53.560;10.062;2022-07-23T16:18:08;22.00;99.90
9973;DHT22;5027;53.560;10.062;2022-07-23T16:20:36;22.00;99.90
9973;DHT22;5027;53.560;10.062;2022-07-23T16:23:03;22.00;99.90
9973;DHT22;5027;53.560;10.062;2022-07-23T16:25:30;22.10;99.90
9973;DHT22;5027;53.560;10.062;2022-07-23T16:27:57;22.20;99.90
9973;DHT22;5027;53.560;10.062;2022-07-23T16:30:23;22.20;99.90